sensor_id;sensor_type;location;lat;lon;timestamp;P1;durP1;ratioP1;P2;durP2;ratioP2
20776;SDS011;10548;47.504;8.248;2023-07-13T00:01:53;10.90;;;4.90;;
20776;SDS011;10548;47.504;8.248;2023-07-13T00:04:21;9.40;;;4.33;;
20776;SDS011;10548;47.504;8.248;2023-07-13T00:06:52;8.73;;;4.97;;
20776;SDS011;10548;47.504;8.248;2023-07-13T00:09:20;11.47;;;5.47;;
20776;SDS011;10548;47.504;8.248;2023-07-13T00:11:52;10.70;;;5.33;;
20776;SDS011;10548;47.504;8.248;2023-07-13T00:14:20;12.90;;;5.20;;
20776;SDS011;10548;47.504;8.248;2023-07-13T00:16:48;9.97;;;5.73;;
20776;SDS011;10548;47.504;8.248;2023-07-13T00:19:15;8.83;;;5.90;;
20776;SDS011;10548;47.504;8.248;2023-07-13T00:21:43;11.40;;;6.27;;
20776;SDS011;10548;47.504;8.248;2023-07-13T00:24:11;11.57;;;5.37;;
20776;SDS011;10548;47.504;8.248;2023-07-13T00:26:39;12.03;;;5.30;;
20776;SDS011;10548;47.504;8.248;2023-07-13T00:29:07;6.97;;;4.57;;
20776;SDS011;10548;47.504;8.248;2023-07-13T00:31:35;8.23;;;5.30;;
20776;SDS011;10548;47.504;8.248;2023-07-13T00:34:03;10.50;;;5.00;;
20776;SDS011;10548;47.504;8.248;2023-07-13T00:36:31;11.43;;;4.93;;
20776;SDS011;10548;47.504;8.248;2023-07-13T00:38:58;7.70;;;4.63;;
20776;SDS011;10548;47.504;8.248;2023-07-13T00:41:25;8.57;;;5.37;;
20776;SDS011;10548;47.504;8.248;2023-07-13T00:43:52;14.23;;;5.70;;
20776;SDS011;10548;47.504;8.248;2023-07-13T00:46:21;7.67;;;4.90;;
20776;SDS011;10548;47.504;8.248;2023-07-13T00:48:54;11.87;;;5.43;;
20776;SDS011;10548;47.504;8.248;2023-07-13T00:51:26;8.83;;;5.20;;
20776;SDS011;10548;47.504;8.248;2023-07-13T00:53:59;9.73;;;5.13;;
20776;SDS011;10548;47.504;8.248;2023-07-13T00:56:30;7.53;;;4.93;;
20776;SDS011;10548;47.504;8.248;2023-07-13T00:58:59;9.10;;;6.00;;
20776;SDS011;10548;47.504;8.248;2023-07-13T01:01:28;7.07;;;4.53;;
20776;SDS011;10548;47.504;8.248;2023-07-13T01:03:56;10.60;;;5.03;;
20776;SDS011;10548;47.504;8.248;2023-07-13T01:06:24;9.97;;;4.80;;
20776;SDS011;10548;47.504;8.248;2023-07-13T01:08:51;9.47;;;5.00;;
20776;SDS011;10548;47.504;8.248;2023-07-13T01:11:19;7.90;;;4.97;;
20776;SDS011;10548;47.504;8.248;2023-07-13T01:13:49;14.00;;;5.13;;
20776;SDS011;10548;47.504;8.248;2023-07-13T01:16:27;12.33;;;5.97;;
20776;SDS011;10548;47.504;8.248;2023-07-13T01:18:57;6.70;;;4.80;;
20776;SDS011;10548;47.504;8.248;2023-07-13T01:21:26;7.80;;;4.67;;
20776;SDS011;10548;47.504;8.248;2023-07-13T01:23:54;9.30;;;5.77;;
20776;SDS011;10548;47.504;8.248;2023-07-13T01:26:21;12.70;;;4.63;;
20776;SDS011;10548;47.504;8.248;2023-07-13T01:28:48;10.10;;;5.07;;
20776;SDS011;10548;47.504;8.248;2023-07-13T01:31:16;6.77;;;5.17;;
20776;SDS011;10548;47.504;8.248;2023-07-13T01:33:43;11.93;;;6.10;;
20776;SDS011;10548;47.504;8.248;2023-07-13T01:36:10;9.67;;;6.13;;
20776;SDS011;10548;47.504;8.248;2023-07-13T01:38:38;11.90;;;6.00;;
20776;SDS011;10548;47.504;8.248;2023-07-13T01:41:08;15.17;;;6.17;;
20776;SDS011;10548;47.504;8.248;2023-07-13T01:43:35;10.33;;;6.90;;
20776;SDS011;10548;47.504;8.248;2023-07-13T01:46:02;9.17;;;6.50;;
20776;SDS011;10548;47.504;8.248;2023-07-13T01:48:48;9.93;;;6.70;;
20776;SDS011;10548;47.504;8.248;2023-07-13T01:51:15;10.17;;;6.67;;
20776;SDS011;10548;47.504;8.248;2023-07-13T01:53:44;9.07;;;6.07;;
20776;SDS011;10548;47.504;8.248;2023-07-13T01:56:11;8.23;;;6.07;;
20776;SDS011;10548;47.504;8.248;2023-07-13T01:58:39;13.97;;;5.27;;
20776;SDS011;10548;47.504;8.248;2023-07-13T02:01:06;10.27;;;6.23;;
20776;SDS011;10548;47.504;8.248;2023-07-13T02:03:33;8.77;;;5.20;;
20776;SDS011;10548;47.504;8.248;2023-07-13T02:06:00;7.53;;;5.37;;
20776;SDS011;10548;47.504;8.248;2023-07-13T02:08:27;13.10;;;5.27;;
20776;SDS011;10548;47.504;8.248;2023-07-13T02:10:55;11.57;;;6.00;;
20776;SDS011;10548;47.504;8.248;2023-07-13T02:13:22;8.07;;;5.77;;
20776;SDS011;10548;47.504;8.248;2023-07-13T02:15:50;8.60;;;5.63;;
20776;SDS011;10548;47.504;8.248;2023-07-13T02:18:18;10.03;;;5.60;;
20776;SDS011;10548;47.504;8.248;2023-07-13T02:20:45;11.53;;;6.17;;
20776;SDS011;10548;47.504;8.248;2023-07-13T02:23:12;6.47;;;5.07;;
20776;SDS011;10548;47.504;8.248;2023-07-13T02:25:39;7.07;;;5.03;;
20776;SDS011;10548;47.504;8.248;2023-07-13T02:28:07;8.93;;;6.03;;
20776;SDS011;10548;47.504;8.248;2023-07-13T02:30:34;14.80;;;6.03;;
20776;SDS011;10548;47.504;8.248;2023-07-13T02:33:02;11.97;;;5.90;;
20776;SDS011;10548;47.504;8.248;2023-07-13T02:35:29;6.83;;;5.10;;
20776;SDS011;10548;47.504;8.248;2023-07-13T02:37:57;8.87;;;5.67;;
20776;SDS011;10548;47.504;8.248;2023-07-13T02:40:24;10.73;;;5.20;;
20776;SDS011;10548;47.504;8.248;2023-07-13T02:42:52;10.20;;;5.87;;
20776;SDS011;10548;47.504;8.248;2023-07-13T02:45:19;10.03;;;5.70;;
20776;SDS011;10548;47.504;8.248;2023-07-13T02:47:46;12.37;;;6.47;;
20776;SDS011;10548;47.504;8.248;2023-07-13T02:50:14;11.80;;;5.93;;
20776;SDS011;10548;47.504;8.248;2023-07-13T02:52:41;9.60;;;6.80;;
20776;SDS011;10548;47.504;8.248;2023-07-13T02:55:08;12.23;;;6.67;;
20776;SDS011;10548;47.504;8.248;2023-07-13T02:57:35;14.57;;;6.53;;
20776;SDS011;10548;47.504;8.248;2023-07-13T03:00:03;9.53;;;6.37;;
20776;SDS011;10548;47.504;8.248;2023-07-13T03:02:33;13.00;;;6.87;;
20776;SDS011;10548;47.504;8.248;2023-07-13T03:05:01;11.60;;;6.57;;
20776;SDS011;10548;47.504;8.248;2023-07-13T03:07:29;8.33;;;6.43;;
20776;SDS011;10548;47.504;8.248;2023-07-13T03:09:57;10.77;;;6.77;;
20776;SDS011;10548;47.504;8.248;2023-07-13T03:12:35;8.63;;;6.00;;
20776;SDS011;10548;47.504;8.248;2023-07-13T03:15:06;11.73;;;5.63;;
20776;SDS011;10548;47.504;8.248;2023-07-13T03:17:37;12.97;;;6.63;;
20776;SDS011;10548;47.504;8.248;2023-07-13T03:20:04;8.97;;;4.83;;
20776;SDS011;10548;47.504;8.248;2023-07-13T03:22:33;8.93;;;4.53;;
20776;SDS011;10548;47.504;8.248;2023-07-13T03:25:00;6.27;;;4.23;;
20776;SDS011;10548;47.504;8.248;2023-07-13T03:27:27;9.57;;;4.00;;
20776;SDS011;10548;47.504;8.248;2023-07-13T03:29:55;5.73;;;3.63;;
20776;SDS011;10548;47.504;8.248;2023-07-13T03:32:22;6.83;;;3.40;;
20776;SDS011;10548;47.504;8.248;2023-07-13T03:34:49;6.03;;;3.57;;
20776;SDS011;10548;47.504;8.248;2023-07-13T03:37:16;5.90;;;3.57;;
20776;SDS011;10548;47.504;8.248;2023-07-13T03:39:43;7.93;;;3.87;;
20776;SDS011;10548;47.504;8.248;2023-07-13T03:42:11;6.83;;;4.27;;
20776;SDS011;10548;47.504;8.248;2023-07-13T03:44:39;7.73;;;3.60;;
20776;SDS011;10548;47.504;8.248;2023-07-13T03:47:07;13.27;;;3.70;;
20776;SDS011;10548;47.504;8.248;2023-07-13T03:49:35;12.63;;;3.90;;
20776;SDS011;10548;47.504;8.248;2023-07-13T03:52:03;7.30;;;3.60;;
20776;SDS011;10548;47.504;8.248;2023-07-13T03:54:30;6.87;;;3.20;;
20776;SDS011;10548;47.504;8.248;2023-07-13T03:57:00;6.17;;;3.83;;
20776;SDS011;10548;47.504;8.248;2023-07-13T03:59:30;6.73;;;3.67;;
20776;SDS011;10548;47.504;8.248;2023-07-13T04:01:57;6.87;;;3.27;;
20776;SDS011;10548;47.504;8.248;2023-07-13T04:04:24;5.47;;;3.40;;
20776;SDS011;10548;47.504;8.248;2023-07-13T04:06:52;6.67;;;3.27;;
20776;SDS011;10548;47.504;8.248;2023-07-13T04:09:19;5.57;;;3.13;;
20776;SDS011;10548;47.504;8.248;2023-07-13T04:11:47;7.50;;;3.77;;
20776;SDS011;10548;47.504;8.248;2023-07-13T04:14:14;7.03;;;3.77;;
20776;SDS011;10548;47.504;8.248;2023-07-13T04:16:42;5.73;;;3.00;;
20776;SDS011;10548;47.504;8.248;2023-07-13T04:19:10;5.93;;;3.60;;
20776;SDS011;10548;47.504;8.248;2023-07-13T04:21:37;6.90;;;3.43;;
20776;SDS011;10548;47.504;8.248;2023-07-13T04:24:04;3.80;;;3.03;;
20776;SDS011;10548;47.504;8.248;2023-07-13T04:26:31;3.90;;;2.87;;
20776;SDS011;10548;47.504;8.248;2023-07-13T04:29:02;8.00;;;3.10;;
20776;SDS011;10548;47.504;8.248;2023-07-13T04:31:30;5.80;;;3.80;;
20776;SDS011;10548;47.504;8.248;2023-07-13T04:33:58;4.73;;;3.10;;
20776;SDS011;10548;47.504;8.248;2023-07-13T04:36:26;6.37;;;3.30;;
20776;SDS011;10548;47.504;8.248;2023-07-13T04:38:53;6.97;;;3.60;;
20776;SDS011;10548;47.504;8.248;2023-07-13T04:41:20;4.63;;;2.93;;
20776;SDS011;10548;47.504;8.248;2023-07-13T04:43:48;6.77;;;3.10;;
20776;SDS011;10548;47.504;8.248;2023-07-13T04:46:16;7.03;;;3.13;;
20776;SDS011;10548;47.504;8.248;2023-07-13T04:48:46;5.53;;;3.33;;
20776;SDS011;10548;47.504;8.248;2023-07-13T04:51:17;4.60;;;2.60;;
20776;SDS011;10548;47.504;8.248;2023-07-13T04:53:44;5.57;;;3.23;;
20776;SDS011;10548;47.504;8.248;2023-07-13T04:56:11;4.20;;;2.93;;
20776;SDS011;10548;47.504;8.248;2023-07-13T04:58:39;9.70;;;3.10;;
20776;SDS011;10548;47.504;8.248;2023-07-13T05:01:07;6.00;;;2.70;;
20776;SDS011;10548;47.504;8.248;2023-07-13T05:03:35;8.80;;;3.27;;
20776;SDS011;10548;47.504;8.248;2023-07-13T05:06:04;6.30;;;2.60;;
20776;SDS011;10548;47.504;8.248;2023-07-13T05:08:36;8.40;;;2.90;;
20776;SDS011;10548;47.504;8.248;2023-07-13T05:11:04;6.97;;;3.20;;
20776;SDS011;10548;47.504;8.248;2023-07-13T05:13:34;3.77;;;2.40;;
20776;SDS011;10548;47.504;8.248;2023-07-13T05:16:02;5.53;;;2.87;;
20776;SDS011;10548;47.504;8.248;2023-07-13T05:18:30;4.27;;;2.40;;
20776;SDS011;10548;47.504;8.248;2023-07-13T05:21:01;5.33;;;2.40;;
20776;SDS011;10548;47.504;8.248;2023-07-13T05:23:31;3.47;;;2.40;;
20776;SDS011;10548;47.504;8.248;2023-07-13T05:25:59;3.30;;;2.37;;
20776;SDS011;10548;47.504;8.248;2023-07-13T05:28:27;6.77;;;2.60;;
20776;SDS011;10548;47.504;8.248;2023-07-13T05:30:57;4.37;;;2.20;;
20776;SDS011;10548;47.504;8.248;2023-07-13T05:33:25;2.87;;;2.20;;
20776;SDS011;10548;47.504;8.248;2023-07-13T05:35:52;5.53;;;2.70;;
20776;SDS011;10548;47.504;8.248;2023-07-13T05:38:20;5.70;;;2.40;;
20776;SDS011;10548;47.504;8.248;2023-07-13T05:40:47;3.67;;;2.17;;
20776;SDS011;10548;47.504;8.248;2023-07-13T05:43:14;4.67;;;2.50;;
20776;SDS011;10548;47.504;8.248;2023-07-13T05:45:41;4.17;;;2.60;;
20776;SDS011;10548;47.504;8.248;2023-07-13T05:48:09;6.10;;;2.60;;
20776;SDS011;10548;47.504;8.248;2023-07-13T05:50:36;5.63;;;2.40;;
20776;SDS011;10548;47.504;8.248;2023-07-13T05:53:03;7.77;;;2.63;;
20776;SDS011;10548;47.504;8.248;2023-07-13T05:55:30;5.93;;;2.50;;
20776;SDS011;10548;47.504;8.248;2023-07-13T05:57:58;8.50;;;3.00;;
20776;SDS011;10548;47.504;8.248;2023-07-13T06:00:26;5.37;;;2.63;;
20776;SDS011;10548;47.504;8.248;2023-07-13T06:02:53;8.50;;;2.60;;
20776;SDS011;10548;47.504;8.248;2023-07-13T06:05:22;9.07;;;2.40;;
20776;SDS011;10548;47.504;8.248;2023-07-13T06:07:49;4.47;;;2.27;;
20776;SDS011;10548;47.504;8.248;2023-07-13T06:10:16;4.93;;;2.27;;
20776;SDS011;10548;47.504;8.248;2023-07-13T06:12:44;4.33;;;2.30;;
20776;SDS011;10548;47.504;8.248;2023-07-13T06:15:11;3.90;;;2.10;;
20776;SDS011;10548;47.504;8.248;2023-07-13T06:17:38;2.83;;;1.93;;
20776;SDS011;10548;47.504;8.248;2023-07-13T06:20:06;4.60;;;1.90;;
20776;SDS011;10548;47.504;8.248;2023-07-13T06:22:33;4.00;;;2.03;;
20776;SDS011;10548;47.504;8.248;2023-07-13T06:25:00;5.20;;;2.63;;
20776;SDS011;10548;47.504;8.248;2023-07-13T06:27:28;5.23;;;2.40;;
20776;SDS011;10548;47.504;8.248;2023-07-13T06:29:56;4.07;;;2.20;;
20776;SDS011;10548;47.504;8.248;2023-07-13T06:32:23;4.87;;;2.40;;
20776;SDS011;10548;47.504;8.248;2023-07-13T06:34:51;3.33;;;2.03;;
20776;SDS011;10548;47.504;8.248;2023-07-13T06:37:21;4.43;;;2.53;;
20776;SDS011;10548;47.504;8.248;2023-07-13T06:39:48;4.10;;;1.87;;
20776;SDS011;10548;47.504;8.248;2023-07-13T06:42:15;5.73;;;2.10;;
20776;SDS011;10548;47.504;8.248;2023-07-13T06:44:43;4.80;;;2.43;;
20776;SDS011;10548;47.504;8.248;2023-07-13T06:47:11;4.30;;;2.20;;
20776;SDS011;10548;47.504;8.248;2023-07-13T06:49:38;4.83;;;1.80;;
20776;SDS011;10548;47.504;8.248;2023-07-13T06:52:05;6.23;;;2.33;;
20776;SDS011;10548;47.504;8.248;2023-07-13T06:54:32;7.30;;;2.80;;
20776;SDS011;10548;47.504;8.248;2023-07-13T06:57:01;6.93;;;2.40;;
20776;SDS011;10548;47.504;8.248;2023-07-13T06:59:28;4.07;;;2.37;;
20776;SDS011;10548;47.504;8.248;2023-07-13T07:01:55;4.53;;;2.73;;
20776;SDS011;10548;47.504;8.248;2023-07-13T07:04:22;5.57;;;2.50;;
20776;SDS011;10548;47.504;8.248;2023-07-13T07:06:49;4.83;;;2.33;;
20776;SDS011;10548;47.504;8.248;2023-07-13T07:09:16;8.07;;;2.30;;
20776;SDS011;10548;47.504;8.248;2023-07-13T07:11:44;8.30;;;2.87;;
20776;SDS011;10548;47.504;8.248;2023-07-13T07:14:27;3.83;;;2.30;;
20776;SDS011;10548;47.504;8.248;2023-07-13T07:16:55;5.23;;;2.83;;
20776;SDS011;10548;47.504;8.248;2023-07-13T07:19:22;6.57;;;2.90;;
20776;SDS011;10548;47.504;8.248;2023-07-13T07:21:49;5.20;;;2.63;;
20776;SDS011;10548;47.504;8.248;2023-07-13T07:24:16;4.83;;;2.33;;
20776;SDS011;10548;47.504;8.248;2023-07-13T07:26:43;4.57;;;2.67;;
20776;SDS011;10548;47.504;8.248;2023-07-13T07:29:13;4.93;;;2.50;;
20776;SDS011;10548;47.504;8.248;2023-07-13T07:31:43;7.17;;;2.70;;
20776;SDS011;10548;47.504;8.248;2023-07-13T07:34:13;6.63;;;2.70;;
20776;SDS011;10548;47.504;8.248;2023-07-13T07:36:40;4.50;;;2.30;;
20776;SDS011;10548;47.504;8.248;2023-07-13T07:39:11;3.63;;;2.20;;
20776;SDS011;10548;47.504;8.248;2023-07-13T07:41:38;4.50;;;2.10;;
20776;SDS011;10548;47.504;8.248;2023-07-13T07:44:08;2.53;;;1.80;;
20776;SDS011;10548;47.504;8.248;2023-07-13T07:46:36;6.33;;;2.40;;
20776;SDS011;10548;47.504;8.248;2023-07-13T07:49:03;4.63;;;2.17;;
20776;SDS011;10548;47.504;8.248;2023-07-13T07:51:31;8.00;;;2.60;;
20776;SDS011;10548;47.504;8.248;2023-07-13T07:53:58;3.93;;;2.23;;
20776;SDS011;10548;47.504;8.248;2023-07-13T07:56:26;4.47;;;2.13;;
20776;SDS011;10548;47.504;8.248;2023-07-13T07:58:56;3.93;;;2.30;;
20776;SDS011;10548;47.504;8.248;2023-07-13T08:01:26;3.67;;;2.30;;
20776;SDS011;10548;47.504;8.248;2023-07-13T08:04:01;7.03;;;2.33;;
20776;SDS011;10548;47.504;8.248;2023-07-13T08:06:32;5.33;;;2.43;;
20776;SDS011;10548;47.504;8.248;2023-07-13T08:09:02;7.43;;;2.70;;
20776;SDS011;10548;47.504;8.248;2023-07-13T08:11:31;6.23;;;2.53;;
20776;SDS011;10548;47.504;8.248;2023-07-13T08:14:01;5.13;;;2.00;;
20776;SDS011;10548;47.504;8.248;2023-07-13T08:16:28;2.80;;;1.83;;
20776;SDS011;10548;47.504;8.248;2023-07-13T08:18:55;4.50;;;2.57;;
20776;SDS011;10548;47.504;8.248;2023-07-13T08:21:22;4.37;;;2.40;;
20776;SDS011;10548;47.504;8.248;2023-07-13T08:23:49;6.50;;;2.23;;
20776;SDS011;10548;47.504;8.248;2023-07-13T08:26:16;2.27;;;1.83;;
20776;SDS011;10548;47.504;8.248;2023-07-13T08:28:44;4.43;;;2.10;;
20776;SDS011;10548;47.504;8.248;2023-07-13T08:31:11;3.67;;;2.47;;
20776;SDS011;10548;47.504;8.248;2023-07-13T08:33:38;5.00;;;2.20;;
20776;SDS011;10548;47.504;8.248;2023-07-13T08:36:07;4.03;;;2.07;;
20776;SDS011;10548;47.504;8.248;2023-07-13T08:38:34;5.73;;;2.30;;
20776;SDS011;10548;47.504;8.248;2023-07-13T08:41:03;6.87;;;2.23;;
20776;SDS011;10548;47.504;8.248;2023-07-13T08:43:40;8.23;;;2.40;;
20776;SDS011;10548;47.504;8.248;2023-07-13T08:46:29;7.00;;;2.53;;
20776;SDS011;10548;47.504;8.248;2023-07-13T08:49:05;10.47;;;2.40;;
20776;SDS011;10548;47.504;8.248;2023-07-13T08:51:49;6.97;;;2.47;;
20776;SDS011;10548;47.504;8.248;2023-07-13T08:54:28;3.50;;;2.30;;
20776;SDS011;10548;47.504;8.248;2023-07-13T08:57:03;10.23;;;2.60;;
20776;SDS011;10548;47.504;8.248;2023-07-13T08:59:41;7.03;;;2.20;;
20776;SDS011;10548;47.504;8.248;2023-07-13T09:05:18;6.23;;;2.90;;
20776;SDS011;10548;47.504;8.248;2023-07-13T09:08:02;5.90;;;2.47;;
20776;SDS011;10548;47.504;8.248;2023-07-13T09:10:58;7.47;;;2.50;;
20776;SDS011;10548;47.504;8.248;2023-07-13T09:13:37;17.47;;;2.40;;
20776;SDS011;10548;47.504;8.248;2023-07-13T09:16:19;4.87;;;2.40;;
20776;SDS011;10548;47.504;8.248;2023-07-13T09:18:49;3.13;;;2.10;;
20776;SDS011;10548;47.504;8.248;2023-07-13T09:21:23;4.73;;;1.83;;
20776;SDS011;10548;47.504;8.248;2023-07-13T09:23:53;7.13;;;2.20;;
20776;SDS011;10548;47.504;8.248;2023-07-13T09:26:25;9.10;;;2.50;;
20776;SDS011;10548;47.504;8.248;2023-07-13T09:29:00;7.03;;;2.67;;
20776;SDS011;10548;47.504;8.248;2023-07-13T09:31:37;7.10;;;2.03;;
20776;SDS011;10548;47.504;8.248;2023-07-13T09:34:27;3.07;;;1.60;;
20776;SDS011;10548;47.504;8.248;2023-07-13T09:36:57;5.00;;;1.47;;
20776;SDS011;10548;47.504;8.248;2023-07-13T09:39:31;8.10;;;1.80;;
20776;SDS011;10548;47.504;8.248;2023-07-13T09:42:15;5.07;;;1.80;;
20776;SDS011;10548;47.504;8.248;2023-07-13T09:47:31;3.30;;;1.30;;
20776;SDS011;10548;47.504;8.248;2023-07-13T09:50:00;4.80;;;1.70;;
20776;SDS011;10548;47.504;8.248;2023-07-13T09:52:40;6.53;;;1.80;;
20776;SDS011;10548;47.504;8.248;2023-07-13T09:58:20;7.47;;;1.60;;
20776;SDS011;10548;47.504;8.248;2023-07-13T10:00:54;5.20;;;1.53;;
20776;SDS011;10548;47.504;8.248;2023-07-13T10:03:25;4.40;;;1.77;;
20776;SDS011;10548;47.504;8.248;2023-07-13T10:06:01;7.40;;;1.80;;
20776;SDS011;10548;47.504;8.248;2023-07-13T10:08:39;7.97;;;1.83;;
20776;SDS011;10548;47.504;8.248;2023-07-13T10:11:18;5.43;;;1.53;;
20776;SDS011;10548;47.504;8.248;2023-07-13T10:14:18;6.40;;;1.63;;
20776;SDS011;10548;47.504;8.248;2023-07-13T10:16:49;4.27;;;1.40;;
20776;SDS011;10548;47.504;8.248;2023-07-13T10:19:24;9.50;;;1.83;;
20776;SDS011;10548;47.504;8.248;2023-07-13T10:21:54;7.43;;;1.63;;
20776;SDS011;10548;47.504;8.248;2023-07-13T10:24:23;2.13;;;1.30;;
20776;SDS011;10548;47.504;8.248;2023-07-13T10:26:54;4.80;;;1.60;;
20776;SDS011;10548;47.504;8.248;2023-07-13T10:30:17;4.87;;;1.77;;
20776;SDS011;10548;47.504;8.248;2023-07-13T10:32:46;7.13;;;1.67;;
20776;SDS011;10548;47.504;8.248;2023-07-13T10:35:15;7.63;;;1.77;;
20776;SDS011;10548;47.504;8.248;2023-07-13T10:37:47;5.73;;;1.20;;
20776;SDS011;10548;47.504;8.248;2023-07-13T10:40:43;4.27;;;1.77;;
20776;SDS011;10548;47.504;8.248;2023-07-13T10:43:21;5.43;;;1.97;;
20776;SDS011;10548;47.504;8.248;2023-07-13T10:46:12;5.17;;;1.60;;
20776;SDS011;10548;47.504;8.248;2023-07-13T10:48:42;4.23;;;1.80;;
20776;SDS011;10548;47.504;8.248;2023-07-13T10:51:12;4.33;;;1.83;;
20776;SDS011;10548;47.504;8.248;2023-07-13T10:53:41;6.97;;;1.90;;
20776;SDS011;10548;47.504;8.248;2023-07-13T10:56:22;5.63;;;1.80;;
20776;SDS011;10548;47.504;8.248;2023-07-13T11:01:54;5.73;;;1.90;;
20776;SDS011;10548;47.504;8.248;2023-07-13T11:04:55;4.43;;;1.83;;
20776;SDS011;10548;47.504;8.248;2023-07-13T11:07:28;4.23;;;1.60;;
20776;SDS011;10548;47.504;8.248;2023-07-13T11:09:57;7.90;;;1.90;;
20776;SDS011;10548;47.504;8.248;2023-07-13T11:12:28;8.47;;;1.60;;
20776;SDS011;10548;47.504;8.248;2023-07-13T11:15:26;3.83;;;1.67;;
20776;SDS011;10548;47.504;8.248;2023-07-13T11:18:02;6.93;;;1.80;;
20776;SDS011;10548;47.504;8.248;2023-07-13T11:20:35;3.17;;;1.70;;
20776;SDS011;10548;47.504;8.248;2023-07-13T11:26:00;12.53;;;1.47;;
20776;SDS011;10548;47.504;8.248;2023-07-13T11:28:29;4.60;;;1.53;;
20776;SDS011;10548;47.504;8.248;2023-07-13T11:31:00;3.10;;;1.73;;
20776;SDS011;10548;47.504;8.248;2023-07-13T11:36:27;2.80;;;1.60;;
20776;SDS011;10548;47.504;8.248;2023-07-13T11:39:00;4.80;;;1.63;;
20776;SDS011;10548;47.504;8.248;2023-07-13T11:41:31;4.63;;;1.77;;
20776;SDS011;10548;47.504;8.248;2023-07-13T11:44:06;4.70;;;1.60;;
20776;SDS011;10548;47.504;8.248;2023-07-13T11:46:37;4.47;;;1.83;;
20776;SDS011;10548;47.504;8.248;2023-07-13T11:49:06;3.23;;;1.40;;
20776;SDS011;10548;47.504;8.248;2023-07-13T11:51:34;7.87;;;1.83;;
20776;SDS011;10548;47.504;8.248;2023-07-13T11:54:04;9.73;;;1.67;;
20776;SDS011;10548;47.504;8.248;2023-07-13T11:56:34;3.10;;;1.50;;
20776;SDS011;10548;47.504;8.248;2023-07-13T11:59:05;5.13;;;1.60;;
20776;SDS011;10548;47.504;8.248;2023-07-13T12:01:34;2.97;;;1.30;;
20776;SDS011;10548;47.504;8.248;2023-07-13T12:04:08;2.87;;;1.27;;
20776;SDS011;10548;47.504;8.248;2023-07-13T12:06:48;5.53;;;1.23;;
20776;SDS011;10548;47.504;8.248;2023-07-13T12:09:26;6.17;;;1.60;;
20776;SDS011;10548;47.504;8.248;2023-07-13T12:11:55;1.47;;;1.13;;
20776;SDS011;10548;47.504;8.248;2023-07-13T12:14:26;3.53;;;1.50;;
20776;SDS011;10548;47.504;8.248;2023-07-13T12:16:53;4.13;;;1.40;;
20776;SDS011;10548;47.504;8.248;2023-07-13T12:19:25;7.83;;;1.30;;
20776;SDS011;10548;47.504;8.248;2023-07-13T12:21:55;3.13;;;1.30;;
20776;SDS011;10548;47.504;8.248;2023-07-13T12:24:24;1.77;;;1.10;;
20776;SDS011;10548;47.504;8.248;2023-07-13T12:27:02;2.27;;;1.37;;
20776;SDS011;10548;47.504;8.248;2023-07-13T12:29:31;3.93;;;1.40;;
20776;SDS011;10548;47.504;8.248;2023-07-13T12:31:59;2.90;;;1.20;;
20776;SDS011;10548;47.504;8.248;2023-07-13T12:34:26;4.93;;;1.50;;
20776;SDS011;10548;47.504;8.248;2023-07-13T12:36:55;3.93;;;1.40;;
20776;SDS011;10548;47.504;8.248;2023-07-13T12:39:27;4.63;;;1.40;;
20776;SDS011;10548;47.504;8.248;2023-07-13T12:45:25;3.23;;;1.30;;
20776;SDS011;10548;47.504;8.248;2023-07-13T12:47:55;3.87;;;1.70;;
20776;SDS011;10548;47.504;8.248;2023-07-13T12:50:43;6.17;;;1.60;;
20776;SDS011;10548;47.504;8.248;2023-07-13T12:53:15;4.43;;;1.23;;
20776;SDS011;10548;47.504;8.248;2023-07-13T12:55:49;3.33;;;1.33;;
20776;SDS011;10548;47.504;8.248;2023-07-13T12:58:27;2.07;;;1.37;;
20776;SDS011;10548;47.504;8.248;2023-07-13T13:01:05;3.97;;;1.77;;
20776;SDS011;10548;47.504;8.248;2023-07-13T13:03:41;3.20;;;1.67;;
20776;SDS011;10548;47.504;8.248;2023-07-13T13:06:26;5.30;;;1.53;;
20776;SDS011;10548;47.504;8.248;2023-07-13T13:08:56;4.30;;;1.30;;
20776;SDS011;10548;47.504;8.248;2023-07-13T13:11:25;5.10;;;1.60;;
20776;SDS011;10548;47.504;8.248;2023-07-13T13:13:54;1.83;;;1.40;;
20776;SDS011;10548;47.504;8.248;2023-07-13T13:16:22;7.53;;;1.60;;
20776;SDS011;10548;47.504;8.248;2023-07-13T13:18:59;4.33;;;1.40;;
20776;SDS011;10548;47.504;8.248;2023-07-13T13:21:45;3.37;;;1.37;;
20776;SDS011;10548;47.504;8.248;2023-07-13T13:24:15;4.40;;;1.67;;
20776;SDS011;10548;47.504;8.248;2023-07-13T13:26:46;6.27;;;1.60;;
20776;SDS011;10548;47.504;8.248;2023-07-13T13:29:21;2.33;;;1.40;;
20776;SDS011;10548;47.504;8.248;2023-07-13T13:31:56;4.03;;;0.93;;
20776;SDS011;10548;47.504;8.248;2023-07-13T13:34:24;8.70;;;1.67;;
20776;SDS011;10548;47.504;8.248;2023-07-13T13:36:53;1.83;;;1.20;;
20776;SDS011;10548;47.504;8.248;2023-07-13T13:39:34;2.47;;;1.20;;
20776;SDS011;10548;47.504;8.248;2023-07-13T13:42:08;3.93;;;1.53;;
20776;SDS011;10548;47.504;8.248;2023-07-13T13:44:36;2.93;;;1.30;;
20776;SDS011;10548;47.504;8.248;2023-07-13T13:47:03;3.23;;;1.30;;
20776;SDS011;10548;47.504;8.248;2023-07-13T13:49:31;7.63;;;1.50;;
20776;SDS011;10548;47.504;8.248;2023-07-13T13:51:58;1.60;;;1.03;;
20776;SDS011;10548;47.504;8.248;2023-07-13T13:54:26;3.90;;;1.43;;
20776;SDS011;10548;47.504;8.248;2023-07-13T13:56:53;2.60;;;1.30;;
20776;SDS011;10548;47.504;8.248;2023-07-13T13:59:22;6.03;;;1.20;;
20776;SDS011;10548;47.504;8.248;2023-07-13T14:01:49;5.40;;;1.30;;
20776;SDS011;10548;47.504;8.248;2023-07-13T14:04:18;4.73;;;1.27;;
20776;SDS011;10548;47.504;8.248;2023-07-13T14:06:48;5.67;;;1.37;;
20776;SDS011;10548;47.504;8.248;2023-07-13T14:09:17;4.50;;;1.20;;
20776;SDS011;10548;47.504;8.248;2023-07-13T14:11:46;6.97;;;1.43;;
20776;SDS011;10548;47.504;8.248;2023-07-13T14:14:18;5.20;;;1.30;;
20776;SDS011;10548;47.504;8.248;2023-07-13T14:16:48;2.80;;;1.40;;
20776;SDS011;10548;47.504;8.248;2023-07-13T14:19:20;5.20;;;1.20;;
20776;SDS011;10548;47.504;8.248;2023-07-13T14:21:48;2.03;;;1.03;;
20776;SDS011;10548;47.504;8.248;2023-07-13T14:24:16;3.63;;;1.03;;
20776;SDS011;10548;47.504;8.248;2023-07-13T14:26:45;2.50;;;1.00;;
20776;SDS011;10548;47.504;8.248;2023-07-13T14:29:14;1.73;;;1.07;;
20776;SDS011;10548;47.504;8.248;2023-07-13T14:31:47;6.13;;;1.23;;
20776;SDS011;10548;47.504;8.248;2023-07-13T14:34:15;5.67;;;1.33;;
20776;SDS011;10548;47.504;8.248;2023-07-13T14:36:42;7.80;;;1.60;;
20776;SDS011;10548;47.504;8.248;2023-07-13T14:39:15;3.80;;;1.37;;
20776;SDS011;10548;47.504;8.248;2023-07-13T14:41:52;6.60;;;1.53;;
20776;SDS011;10548;47.504;8.248;2023-07-13T14:44:22;3.40;;;1.20;;
20776;SDS011;10548;47.504;8.248;2023-07-13T14:46:52;8.10;;;1.60;;
20776;SDS011;10548;47.504;8.248;2023-07-13T14:49:27;5.87;;;1.40;;
20776;SDS011;10548;47.504;8.248;2023-07-13T14:52:01;3.63;;;1.53;;
20776;SDS011;10548;47.504;8.248;2023-07-13T14:54:37;3.30;;;1.63;;
20776;SDS011;10548;47.504;8.248;2023-07-13T14:57:11;4.10;;;1.20;;
20776;SDS011;10548;47.504;8.248;2023-07-13T14:59:39;2.57;;;1.30;;
20776;SDS011;10548;47.504;8.248;2023-07-13T15:02:27;3.73;;;1.20;;
20776;SDS011;10548;47.504;8.248;2023-07-13T15:05:00;2.67;;;1.33;;
20776;SDS011;10548;47.504;8.248;2023-07-13T15:07:28;3.67;;;1.13;;
20776;SDS011;10548;47.504;8.248;2023-07-13T15:09:55;4.77;;;1.00;;
20776;SDS011;10548;47.504;8.248;2023-07-13T15:12:22;2.70;;;1.10;;
20776;SDS011;10548;47.504;8.248;2023-07-13T15:14:49;3.47;;;1.30;;
20776;SDS011;10548;47.504;8.248;2023-07-13T15:17:36;2.40;;;1.27;;
20776;SDS011;10548;47.504;8.248;2023-07-13T15:20:19;5.97;;;1.60;;
20776;SDS011;10548;47.504;8.248;2023-07-13T15:23:00;3.07;;;1.40;;
20776;SDS011;10548;47.504;8.248;2023-07-13T15:25:28;3.13;;;1.30;;
20776;SDS011;10548;47.504;8.248;2023-07-13T15:27:57;3.20;;;1.40;;